Time;durP1;ratioP1;P1;durP2;ratioP2;P2;SDS_P1;SDS_P2;PMS_P1;PMS_P2;Temp;Humidity;BMP_temperature;BMP_pressure;BME280_temperature;BME280_humidity;BME280_pressure;Samples;Min_cycle;Max_cycle;Signal;HPM_P1;HPM_P2
2022/03/13 00:00:53;;;;;;;89.07;34.47;;;;;;;;;;10273469;28;20206;-66
2022/03/13 00:05:55;;;;;;;79.40;33.93;;;;;;;;;;10324160;28;20062;-67
2022/03/13 00:11:00;;;;;;;81.10;34.72;;;;;;;;;;10293049;28;20304;-67
2022/03/13 00:16:08;;;;;;;89.80;34.95;;;;;;;;;;10311041;28;20334;-67
2022/03/13 00:21:11;;;;;;;96.72;36.83;;;;;;;;;;10284641;28;20043;-68
2022/03/13 00:26:15;;;;;;;94.57;35.42;;;;;;;;;;10270686;28;20047;-68
2022/03/13 00:31:20;;;;;;;86.97;36.38;;;;;;;;;;10304897;28;20042;-68
2022/03/13 00:36:22;;;;;;;102.75;43.08;;;;;;;;;;10310048;28;20047;-68
2022/03/13 00:41:24;;;;;;;144.02;50.50;;;;;;;;;;10310918;28;20067;-68
2022/03/13 00:46:29;;;;;;;117.20;45.95;;;;;;;;;;10319304;28;20238;-68
2022/03/13 00:51:31;;;;;;;108.88;41.13;;;;;;;;;;10319161;28;20058;-68
2022/03/13 00:56:34;;;;;;;102.22;40.35;;;;;;;;;;10317934;28;20051;-68
2022/03/13 01:01:37;;;;;;;102.82;39.90;;;;;;;;;;10318251;28;20058;-68
2022/03/13 01:06:41;;;;;;;96.68;40.53;;;;;;;;;;10317308;28;20061;-68
2022/03/13 01:11:43;;;;;;;90.00;38.45;;;;;;;;;;10317260;28;20050;-68
2022/03/13 01:16:49;;;;;;;109.80;44.25;;;;;;;;;;10317233;28;20359;-68
2022/03/13 01:21:52;;;;;;;106.18;41.05;;;;;;;;;;10317742;28;20050;-68
2022/03/13 01:26:55;;;;;;;105.95;41.70;;;;;;;;;;10317010;28;20342;-69
2022/03/13 01:32:00;;;;;;;97.38;40.50;;;;;;;;;;10317036;28;20054;-68
2022/03/13 01:37:02;;;;;;;93.15;39.22;;;;;;;;;;10317081;28;20055;-68
2022/03/13 01:42:05;;;;;;;101.75;40.25;;;;;;;;;;10315606;28;20066;-68
2022/03/13 01:47:10;;;;;;;95.35;38.67;;;;;;;;;;10316300;28;20055;-67
2022/03/13 01:52:12;;;;;;;102.15;37.83;;;;;;;;;;10317093;28;20070;-68
2022/03/13 01:57:18;;;;;;;99.45;39.00;;;;;;;;;;10315386;28;20097;-68
2022/03/13 02:02:22;;;;;;;87.45;36.55;;;;;;;;;;10328433;28;20049;-68
2022/03/13 02:07:28;;;;;;;94.18;37.78;;;;;;;;;;10316405;28;20408;-67
2022/03/13 02:12:31;;;;;;;87.28;38.05;;;;;;;;;;10314272;28;20051;-67
2022/03/13 02:17:36;;;;;;;92.07;38.40;;;;;;;;;;10315203;28;20326;-68
2022/03/13 02:22:38;;;;;;;84.95;36.90;;;;;;;;;;10315009;28;20039;-68
2022/03/13 02:27:42;;;;;;;88.05;37.70;;;;;;;;;;10314922;28;20066;-68
2022/03/13 02:32:44;;;;;;;89.75;37.25;;;;;;;;;;10315180;28;20046;-68
2022/03/13 02:37:49;;;;;;;89.55;38.88;;;;;;;;;;10313261;28;20057;-68
2022/03/13 02:42:55;;;;;;;87.57;36.55;;;;;;;;;;10326994;28;20050;-67
2022/03/13 02:47:58;;;;;;;90.32;37.85;;;;;;;;;;10313202;28;20058;-67
2022/03/13 02:53:00;;;;;;;89.53;38.78;;;;;;;;;;10313488;28;20054;-67
2022/03/13 02:58:05;;;;;;;87.03;37.75;;;;;;;;;;10312557;28;20079;-68
2022/03/13 03:03:07;;;;;;;98.87;42.87;;;;;;;;;;10312075;28;20042;-68
2022/03/13 03:08:10;;;;;;;91.82;38.15;;;;;;;;;;10312493;28;20312;-67
2022/03/13 03:13:15;;;;;;;85.13;37.08;;;;;;;;;;10312751;28;20051;-68
2022/03/13 03:18:18;;;;;;;87.43;38.15;;;;;;;;;;10312378;28;20078;-68
2022/03/13 03:23:20;;;;;;;96.68;38.88;;;;;;;;;;10312714;28;20082;-69
2022/03/13 03:28:25;;;;;;;87.93;38.35;;;;;;;;;;10311985;28;20034;-68
2022/03/13 03:33:27;;;;;;;95.53;38.45;;;;;;;;;;10310664;28;20046;-69
2022/03/13 03:38:30;;;;;;;91.50;38.30;;;;;;;;;;10311580;28;20515;-68
2022/03/13 03:43:34;;;;;;;85.55;37.20;;;;;;;;;;10311790;28;20269;-67
2022/03/13 03:48:36;;;;;;;100.40;41.22;;;;;;;;;;10310956;28;20050;-68
2022/03/13 03:53:39;;;;;;;92.80;40.13;;;;;;;;;;10311103;28;20085;-68
2022/03/13 03:58:42;;;;;;;89.22;38.85;;;;;;;;;;10310470;28;20081;-68
2022/03/13 04:03:45;;;;;;;86.68;38.00;;;;;;;;;;10309947;28;20397;-67
2022/03/13 04:08:48;;;;;;;88.38;39.40;;;;;;;;;;10312053;28;20241;-68
2022/03/13 04:13:51;;;;;;;92.90;41.88;;;;;;;;;;10310364;28;20050;-68
2022/03/13 04:18:54;;;;;;;91.47;37.70;;;;;;;;;;10310568;28;20054;-68
2022/03/13 04:23:56;;;;;;;84.25;37.15;;;;;;;;;;10310419;28;20289;-68
2022/03/13 04:29:00;;;;;;;94.35;36.58;;;;;;;;;;10310083;28;20054;-68
2022/03/13 04:34:04;;;;;;;86.15;36.35;;;;;;;;;;10311076;28;20051;-69
2022/03/13 04:39:08;;;;;;;84.18;37.70;;;;;;;;;;10310148;28;20275;-68
2022/03/13 04:44:14;;;;;;;89.50;37.92;;;;;;;;;;10308882;28;20058;-68
2022/03/13 04:49:16;;;;;;;90.70;38.28;;;;;;;;;;10322666;28;20051;-69
2022/03/13 04:54:19;;;;;;;85.95;38.05;;;;;;;;;;10310695;28;20047;-67
2022/03/13 04:59:23;;;;;;;85.30;37.30;;;;;;;;;;10309001;28;20054;-68
2022/03/13 05:04:25;;;;;;;80.80;37.35;;;;;;;;;;10309724;28;20251;-68
2022/03/13 05:09:27;;;;;;;80.05;35.40;;;;;;;;;;10309540;28;20230;-68
2022/03/13 05:14:31;;;;;;;84.95;37.10;;;;;;;;;;10309337;28;20333;-69
2022/03/13 05:19:34;;;;;;;83.75;37.95;;;;;;;;;;10310265;28;20050;-68
2022/03/13 05:24:36;;;;;;;83.80;38.22;;;;;;;;;;10307970;28;20054;-69
2022/03/13 05:29:41;;;;;;;79.70;37.17;;;;;;;;;;10313480;28;20049;-68
2022/03/13 05:34:43;;;;;;;87.72;40.00;;;;;;;;;;10316914;28;20054;-69
2022/03/13 05:39:46;;;;;;;83.22;38.67;;;;;;;;;;10315198;28;20384;-69
2022/03/13 05:44:50;;;;;;;68.47;36.78;;;;;;;;;;10316815;28;20123;-69
2022/03/13 05:49:53;;;;;;;66.00;37.03;;;;;;;;;;10314986;28;20055;-69
2022/03/13 05:54:55;;;;;;;73.75;35.60;;;;;;;;;;10316405;28;20051;-69
2022/03/13 05:59:58;;;;;;;61.45;36.05;;;;;;;;;;10314055;28;20242;-69
2022/03/13 06:05:01;;;;;;;67.88;35.90;;;;;;;;;;10315214;28;20090;-69
2022/03/13 06:10:04;;;;;;;59.90;33.53;;;;;;;;;;10315020;28;20047;-67
2022/03/13 06:15:11;;;;;;;50.13;31.45;;;;;;;;;;10312370;28;20050;-69
2022/03/13 06:20:16;;;;;;;47.22;30.55;;;;;;;;;;10314287;28;20051;-68
2022/03/13 06:25:19;;;;;;;50.80;31.73;;;;;;;;;;10314754;28;20059;-68
2022/03/13 06:30:23;;;;;;;63.63;35.58;;;;;;;;;;10313172;28;20055;-68
2022/03/13 06:35:26;;;;;;;52.13;32.95;;;;;;;;;;10313758;28;20069;-69
2022/03/13 06:40:29;;;;;;;50.28;31.90;;;;;;;;;;10312431;28;20148;-69
2022/03/13 06:45:34;;;;;;;52.25;29.90;;;;;;;;;;10313042;28;20237;-68
2022/03/13 06:50:36;;;;;;;43.63;29.50;;;;;;;;;;10314043;28;20070;-68
2022/03/13 06:55:38;;;;;;;43.25;29.42;;;;;;;;;;10313081;28;20242;-68
2022/03/13 07:00:44;;;;;;;;;;;;;;;;;;10312121;28;20313;-69
2022/03/13 07:05:46;;;;;;;38.40;26.45;;;;;;;;;;10326944;28;20204;-70
2022/03/13 07:10:50;;;;;;;44.55;24.95;;;;;;;;;;10312986;28;20042;-69
2022/03/13 07:15:55;;;;;;;34.25;24.00;;;;;;;;;;10312324;28;20045;-70
2022/03/13 07:20:58;;;;;;;29.85;22.00;;;;;;;;;;10311660;28;20056;-69
2022/03/13 07:26:01;;;;;;;32.78;22.67;;;;;;;;;;10312368;28;20245;-69
2022/03/13 07:31:04;;;;;;;35.20;24.95;;;;;;;;;;10310826;28;20506;-68
2022/03/13 07:36:07;;;;;;;37.67;25.20;;;;;;;;;;10312848;28;20242;-71
2022/03/13 07:41:11;;;;;;;32.53;23.33;;;;;;;;;;10310708;28;20077;-68
2022/03/13 07:46:15;;;;;;;32.00;22.88;;;;;;;;;;10311071;28;20258;-69
2022/03/13 07:51:19;;;;;;;32.15;21.48;;;;;;;;;;10310034;28;20047;-70
2022/03/13 07:56:23;;;;;;;28.88;20.45;;;;;;;;;;10310168;28;20055;-69
2022/03/13 08:01:27;;;;;;;28.38;20.15;;;;;;;;;;10309701;28;20059;-69
2022/03/13 08:06:29;;;;;;;31.85;20.92;;;;;;;;;;10310481;28;20345;-69
2022/03/13 08:11:32;;;;;;;28.75;19.48;;;;;;;;;;10309544;28;20046;-71
2022/03/13 08:16:36;;;;;;;30.95;18.83;;;;;;;;;;10310146;28;20062;-69
2022/03/13 08:21:39;;;;;;;24.92;18.40;;;;;;;;;;10310156;28;20230;-68
2022/03/13 08:26:42;;;;;;;22.55;16.80;;;;;;;;;;10310430;28;20054;-69
2022/03/13 08:31:45;;;;;;;27.77;18.40;;;;;;;;;;10310963;28;20038;-70
2022/03/13 08:36:48;;;;;;;19.45;14.30;;;;;;;;;;10309446;28;20042;-69
2022/03/13 08:41:51;;;;;;;23.00;16.48;;;;;;;;;;10311039;28;20054;-70
2022/03/13 08:46:55;;;;;;;19.05;15.32;;;;;;;;;;10309389;28;20050;-69
2022/03/13 08:51:57;;;;;;;17.17;13.63;;;;;;;;;;10310281;28;20058;-70
2022/03/13 08:57:01;;;;;;;18.23;15.23;;;;;;;;;;10309838;28;20274;-69
2022/03/13 09:02:05;;;;;;;18.55;13.10;;;;;;;;;;10310076;28;20219;-69
2022/03/13 09:07:08;;;;;;;16.73;12.68;;;;;;;;;;10318256;28;20050;-70
2022/03/13 09:12:11;;;;;;;31.63;20.48;;;;;;;;;;10316072;28;20102;-70
2022/03/13 09:17:15;;;;;;;16.27;10.90;;;;;;;;;;10316773;28;20058;-70
2022/03/13 09:22:19;;;;;;;19.90;12.75;;;;;;;;;;10316556;28;20246;-68
2022/03/13 09:27:21;;;;;;;12.45;9.40;;;;;;;;;;10316664;28;20054;-68
2022/03/13 09:32:26;;;;;;;13.15;11.00;;;;;;;;;;10315844;28;20245;-69
2022/03/13 09:37:28;;;;;;;24.60;13.00;;;;;;;;;;10316161;28;20070;-69
2022/03/13 09:42:32;;;;;;;21.30;13.50;;;;;;;;;;10315382;28;20054;-70
2022/03/13 09:47:37;;;;;;;21.30;12.60;;;;;;;;;;10315139;28;20333;-69
2022/03/13 09:52:41;;;;;;;40.63;21.17;;;;;;;;;;10315531;28;20055;-67
2022/03/13 09:57:46;;;;;;;25.17;14.00;;;;;;;;;;10314893;28;20053;-67
2022/03/13 10:02:53;;;;;;;30.15;15.23;;;;;;;;;;10315475;28;20050;-68
2022/03/13 10:07:58;;;;;;;24.52;14.80;;;;;;;;;;10313301;28;20054;-68
2022/03/13 10:13:01;;;;;;;25.25;15.80;;;;;;;;;;10314798;28;20042;-69
2022/03/13 10:18:13;;;;;;;28.83;16.98;;;;;;;;;;10314647;28;20066;-67
2022/03/13 10:23:19;;;;;;;40.35;20.30;;;;;;;;;;10329641;28;20042;-68
2022/03/13 10:28:25;;;;;;;27.02;16.00;;;;;;;;;;10328227;28;20356;-69
2022/03/13 10:33:35;;;;;;;43.97;20.73;;;;;;;;;;10315059;28;20053;-68
2022/03/13 10:38:39;;;;;;;25.83;15.18;;;;;;;;;;10310202;28;20074;-68
2022/03/13 10:43:58;;;;;;;28.73;15.75;;;;;;;;;;10314748;28;20058;-69
2022/03/13 10:49:06;;;;;;;27.58;15.57;;;;;;;;;;10326926;28;20364;-67
2022/03/13 10:54:08;;;;;;;29.77;15.52;;;;;;;;;;10312726;28;20061;-69
2022/03/13 10:59:18;;;;;;;29.55;15.90;;;;;;;;;;10312675;28;20058;-68
2022/03/13 11:04:25;;;;;;;24.67;15.18;;;;;;;;;;10326378;28;20229;-68
2022/03/13 11:09:27;;;;;;;29.25;16.48;;;;;;;;;;10312861;28;20070;-69
2022/03/13 11:14:29;;;;;;;27.70;15.70;;;;;;;;;;10313266;28;20043;-68
2022/03/13 11:19:35;;;;;;;23.30;13.57;;;;;;;;;;10313919;28;20372;-68
2022/03/13 11:24:39;;;;;;;26.42;15.60;;;;;;;;;;10312996;28;20051;-69
2022/03/13 11:29:44;;;;;;;23.98;13.80;;;;;;;;;;10313357;28;20126;-67
2022/03/13 11:35:27;;;;;;;19.88;11.82;;;;;;;;;;10310505;28;20326;-69
2022/03/13 11:40:32;;;;;;;23.00;11.52;;;;;;;;;;10311697;28;20139;-67
2022/03/13 11:45:39;;;;;;;20.70;13.50;;;;;;;;;;10311209;28;20054;-69
2022/03/13 11:50:49;;;;;;;23.33;14.88;;;;;;;;;;10311226;28;20325;-68
2022/03/13 11:56:09;;;;;;;24.33;14.35;;;;;;;;;;10322559;28;20039;-69
2022/03/13 12:01:15;;;;;;;24.70;15.20;;;;;;;;;;10323636;28;20334;-68
2022/03/13 12:06:32;;;;;;;;;;;;;;;;;;10324079;28;20342;-69
2022/03/13 12:11:40;;;;;;;20.33;12.02;;;;;;;;;;10310638;28;20117;-68
2022/03/13 12:16:44;;;;;;;28.77;16.13;;;;;;;;;;10324640;28;20047;-69
2022/03/13 12:21:47;;;;;;;20.33;13.27;;;;;;;;;;10311149;28;20334;-68
2022/03/13 12:26:52;;;;;;;18.80;13.15;;;;;;;;;;10310471;28;20101;-69
2022/03/13 12:31:56;;;;;;;17.95;13.10;;;;;;;;;;10324963;28;20055;-67
2022/03/13 12:37:00;;;;;;;21.13;12.85;;;;;;;;;;10310373;28;20050;-70
2022/03/13 12:42:05;;;;;;;19.17;11.48;;;;;;;;;;10319365;28;20109;-69
2022/03/13 12:47:09;;;;;;;15.07;10.35;;;;;;;;;;10318519;28;20385;-68
2022/03/13 12:52:15;;;;;;;24.73;11.27;;;;;;;;;;10319427;28;20043;-69
2022/03/13 12:57:19;;;;;;;16.92;12.07;;;;;;;;;;10331045;28;20043;-68
2022/03/13 13:02:25;;;;;;;17.98;11.80;;;;;;;;;;10317477;28;20054;-69
2022/03/13 13:07:28;;;;;;;22.70;12.50;;;;;;;;;;10316610;28;20062;-68
2022/03/13 13:12:33;;;;;;;21.35;13.57;;;;;;;;;;10317346;28;20039;-68
2022/03/13 13:17:36;;;;;;;25.10;14.60;;;;;;;;;;10317802;28;20042;-67
2022/03/13 13:22:40;;;;;;;22.05;14.27;;;;;;;;;;10318029;28;20043;-69
2022/03/13 13:27:46;;;;;;;22.63;14.10;;;;;;;;;;10317598;28;20050;-69
2022/03/13 13:32:50;;;;;;;22.42;15.00;;;;;;;;;;10317209;28;20043;-68
2022/03/13 13:38:02;;;;;;;25.88;15.88;;;;;;;;;;10316507;28;20049;-68
2022/03/13 13:43:09;;;;;;;25.95;17.30;;;;;;;;;;10329097;28;20151;-68
2022/03/13 13:48:29;;;;;;;27.73;18.27;;;;;;;;;;10329945;28;20057;-68
2022/03/13 13:53:47;;;;;;;29.50;18.00;;;;;;;;;;10330250;28;20342;-68
2022/03/13 13:58:54;;;;;;;27.25;17.23;;;;;;;;;;10317482;28;20063;-67
2022/03/13 14:03:56;;;;;;;29.20;18.27;;;;;;;;;;10315957;28;20057;-68
2022/03/13 14:08:59;;;;;;;30.10;17.85;;;;;;;;;;10317410;28;20058;-68
2022/03/13 14:14:03;;;;;;;26.90;18.40;;;;;;;;;;10314834;28;20102;-69
2022/03/13 14:19:06;;;;;;;28.23;18.90;;;;;;;;;;10315137;28;20126;-69
2022/03/13 14:24:11;;;;;;;31.10;17.27;;;;;;;;;;10314820;28;20051;-68
2022/03/13 14:29:14;;;;;;;28.92;18.83;;;;;;;;;;10314118;28;20062;-68
2022/03/13 14:34:18;;;;;;;30.27;18.40;;;;;;;;;;10314608;28;20042;-68
2022/03/13 14:39:22;;;;;;;28.02;18.77;;;;;;;;;;10314047;28;20336;-68
2022/03/13 14:44:27;;;;;;;28.83;16.60;;;;;;;;;;10313546;28;20042;-69
2022/03/13 14:49:29;;;;;;;33.10;18.52;;;;;;;;;;10313179;28;20113;-69
2022/03/13 14:54:31;;;;;;;30.45;18.92;;;;;;;;;;10313945;28;20089;-70
2022/03/13 14:59:37;;;;;;;29.48;19.60;;;;;;;;;;10312931;28;20352;-68
2022/03/13 15:04:40;;;;;;;52.90;25.27;;;;;;;;;;10313455;28;20042;-68
2022/03/13 15:09:44;;;;;;;58.78;28.20;;;;;;;;;;10312690;28;20050;-69
2022/03/13 15:14:47;;;;;;;34.75;19.60;;;;;;;;;;10312932;28;20043;-68
2022/03/13 15:19:50;;;;;;;32.88;20.73;;;;;;;;;;10312039;28;20054;-69
2022/03/13 15:24:53;;;;;;;30.02;19.08;;;;;;;;;;10309262;28;20043;-69
2022/03/13 15:29:56;;;;;;;32.85;20.45;;;;;;;;;;10310946;28;20058;-68
2022/03/13 15:34:59;;;;;;;28.90;19.30;;;;;;;;;;10313972;28;20065;-68
2022/03/13 15:40:04;;;;;;;41.80;22.95;;;;;;;;;;10312286;28;20074;-68
2022/03/13 15:45:11;;;;;;;32.22;20.02;;;;;;;;;;10314010;28;20061;-68
2022/03/13 15:50:13;;;;;;;33.42;17.75;;;;;;;;;;10325520;28;20046;-68
2022/03/13 15:55:15;;;;;;;35.47;19.20;;;;;;;;;;10312939;28;20046;-69
2022/03/13 16:00:20;;;;;;;35.92;19.20;;;;;;;;;;10310903;28;20043;-68
2022/03/13 16:05:22;;;;;;;35.20;18.88;;;;;;;;;;10312671;28;20046;-69
2022/03/13 16:10:25;;;;;;;36.90;21.83;;;;;;;;;;10312457;28;20042;-69
2022/03/13 16:15:28;;;;;;;40.22;22.83;;;;;;;;;;10311602;28;20341;-69
2022/03/13 16:20:35;;;;;;;52.33;25.00;;;;;;;;;;10311338;28;20057;-71
2022/03/13 16:25:37;;;;;;;34.58;20.55;;;;;;;;;;10326686;28;20046;-68
2022/03/13 16:30:41;;;;;;;37.58;19.90;;;;;;;;;;10311585;28;20063;-69
2022/03/13 16:35:44;;;;;;;35.58;18.33;;;;;;;;;;10310945;28;20274;-68
2022/03/13 16:40:48;;;;;;;34.55;18.42;;;;;;;;;;10311215;28;20365;-68
2022/03/13 16:45:52;;;;;;;33.25;18.92;;;;;;;;;;10295284;28;20059;-69
2022/03/13 16:50:54;;;;;;;38.28;19.85;;;;;;;;;;10310668;28;20314;-69
2022/03/13 16:55:57;;;;;;;45.92;22.15;;;;;;;;;;10309708;28;20086;-69
2022/03/13 17:01:00;;;;;;;42.33;22.05;;;;;;;;;;10309843;28;20039;-66
2022/03/13 17:06:03;;;;;;;34.95;20.08;;;;;;;;;;10310925;28;20283;-69
2022/03/13 17:11:05;;;;;;;41.78;21.77;;;;;;;;;;10307977;28;20059;-67
2022/03/13 17:16:09;;;;;;;44.05;22.92;;;;;;;;;;10311003;28;20057;-70
2022/03/13 17:21:12;;;;;;;51.65;25.02;;;;;;;;;;10311717;28;20059;-69
2022/03/13 17:26:14;;;;;;;54.00;26.27;;;;;;;;;;10317762;28;20333;-71
2022/03/13 17:31:19;;;;;;;55.13;27.65;;;;;;;;;;10291442;28;20349;-67
2022/03/13 17:36:21;;;;;;;37.00;22.02;;;;;;;;;;10325896;28;20113;-69
2022/03/13 17:41:23;;;;;;;45.80;22.80;;;;;;;;;;10315273;28;20113;-68
2022/03/13 17:46:28;;;;;;;51.17;25.17;;;;;;;;;;10317958;28;20039;-69
2022/03/13 17:51:30;;;;;;;58.22;27.70;;;;;;;;;;10317903;28;20129;-68
2022/03/13 17:56:33;;;;;;;60.08;28.90;;;;;;;;;;10316671;28;20038;-68
2022/03/13 18:01:36;;;;;;;59.85;27.98;;;;;;;;;;10317233;28;20062;-67
2022/03/13 18:06:39;;;;;;;59.38;30.15;;;;;;;;;;10317079;28;20073;-69
2022/03/13 18:11:42;;;;;;;59.67;29.15;;;;;;;;;;10314900;28;20054;-68
2022/03/13 18:16:46;;;;;;;60.08;28.25;;;;;;;;;;10316723;28;20049;-68
2022/03/13 18:21:49;;;;;;;53.08;29.30;;;;;;;;;;10316714;28;20055;-68
2022/03/13 18:26:51;;;;;;;55.45;29.00;;;;;;;;;;10314784;28;20047;-71
2022/03/13 18:31:55;;;;;;;62.80;30.27;;;;;;;;;;10315781;28;20306;-67
2022/03/13 18:36:57;;;;;;;72.30;32.28;;;;;;;;;;10315824;28;20062;-68
2022/03/13 18:42:00;;;;;;;82.72;34.17;;;;;;;;;;10314580;28;20074;-68
2022/03/13 18:47:04;;;;;;;58.67;28.65;;;;;;;;;;10316127;28;20231;-67
2022/03/13 18:52:08;;;;;;;54.38;27.85;;;;;;;;;;10328442;28;20049;-68
2022/03/13 18:57:13;;;;;;;64.05;30.42;;;;;;;;;;10315260;28;20376;-67
2022/03/13 19:02:17;;;;;;;78.35;32.30;;;;;;;;;;10316586;28;20043;-68
2022/03/13 19:07:20;;;;;;;69.35;31.83;;;;;;;;;;10315525;28;20055;-68
2022/03/13 19:12:23;;;;;;;65.75;30.98;;;;;;;;;;10313971;28;20057;-68
2022/03/13 19:17:30;;;;;;;79.50;35.17;;;;;;;;;;10315383;28;20051;-68
2022/03/13 19:22:34;;;;;;;67.15;32.30;;;;;;;;;;10314370;28;20093;-69
2022/03/13 19:27:37;;;;;;;66.60;33.40;;;;;;;;;;10315971;28;20356;-67
2022/03/13 19:32:41;;;;;;;83.88;35.20;;;;;;;;;;10313734;28;20046;-68
2022/03/13 19:37:43;;;;;;;86.28;36.38;;;;;;;;;;10273681;28;20087;-68
2022/03/13 19:42:47;;;;;;;67.75;34.28;;;;;;;;;;10311089;28;20050;-69
2022/03/13 19:47:52;;;;;;;68.70;33.15;;;;;;;;;;10314074;28;20043;-69
2022/03/13 19:52:55;;;;;;;75.78;36.90;;;;;;;;;;10313279;28;20050;-69
2022/03/13 19:57:57;;;;;;;66.13;33.95;;;;;;;;;;10314322;28;20043;-68
2022/03/13 20:03:01;;;;;;;70.40;35.67;;;;;;;;;;10313215;28;20053;-68
2022/03/13 20:08:05;;;;;;;73.70;33.97;;;;;;;;;;10312808;28;20063;-68
2022/03/13 20:13:08;;;;;;;81.05;35.72;;;;;;;;;;10311342;28;20237;-68
2022/03/13 20:18:12;;;;;;;74.22;34.03;;;;;;;;;;10313169;28;20352;-67
2022/03/13 20:23:15;;;;;;;63.78;31.77;;;;;;;;;;10311833;28;20050;-69
2022/03/13 20:28:17;;;;;;;95.35;38.42;;;;;;;;;;10311651;28;20039;-69
2022/03/13 20:33:21;;;;;;;89.03;36.13;;;;;;;;;;10312979;28;20038;-69
2022/03/13 20:38:24;;;;;;;65.07;30.55;;;;;;;;;;10311538;28;20063;-68
2022/03/13 20:43:27;;;;;;;59.65;27.98;;;;;;;;;;10325286;28;20209;-68
2022/03/13 20:48:31;;;;;;;58.25;28.08;;;;;;;;;;10312593;28;20039;-68
2022/03/13 20:53:34;;;;;;;60.83;28.70;;;;;;;;;;10272165;29;20054;-68
2022/03/13 20:58:36;;;;;;;60.75;29.17;;;;;;;;;;10277238;28;20329;-69
2022/03/13 21:03:40;;;;;;;61.45;28.88;;;;;;;;;;10319511;28;20109;-68
2022/03/13 21:08:43;;;;;;;59.90;28.48;;;;;;;;;;10320472;28;20057;-69
2022/03/13 21:13:46;;;;;;;61.15;29.00;;;;;;;;;;10318205;28;20046;-67
2022/03/13 21:18:50;;;;;;;63.95;27.98;;;;;;;;;;10319543;28;20328;-68
2022/03/13 21:23:52;;;;;;;59.17;26.17;;;;;;;;;;10317662;28;20053;-68
2022/03/13 21:28:55;;;;;;;69.82;31.00;;;;;;;;;;10319492;28;20241;-68
2022/03/13 21:33:59;;;;;;;64.88;31.50;;;;;;;;;;10318650;28;20253;-67
2022/03/13 21:39:03;;;;;;;62.60;30.20;;;;;;;;;;10318261;28;20066;-68
2022/03/13 21:44:06;;;;;;;60.67;31.08;;;;;;;;;;10319213;28;20053;-68
2022/03/13 21:49:10;;;;;;;61.50;29.23;;;;;;;;;;10314539;28;20285;-69
2022/03/13 21:54:12;;;;;;;60.50;29.25;;;;;;;;;;10316590;28;20110;-68
2022/03/13 21:59:15;;;;;;;66.05;31.65;;;;;;;;;;10319026;28;20364;-68
2022/03/13 22:04:20;;;;;;;68.40;32.05;;;;;;;;;;10317998;28;20053;-67
2022/03/13 22:09:22;;;;;;;66.03;32.22;;;;;;;;;;10316016;28;20069;-68
2022/03/13 22:14:25;;;;;;;80.43;35.38;;;;;;;;;;10317633;28;20082;-69
2022/03/13 22:19:30;;;;;;;75.38;35.88;;;;;;;;;;10317748;28;20074;-69
2022/03/13 22:24:32;;;;;;;68.80;32.85;;;;;;;;;;10315828;28;20050;-68
2022/03/13 22:29:34;;;;;;;75.22;34.58;;;;;;;;;;10315947;28;20059;-68
2022/03/13 22:34:38;;;;;;;88.43;37.45;;;;;;;;;;10314894;28;20057;-69
2022/03/13 22:39:41;;;;;;;72.20;34.92;;;;;;;;;;10315881;28;20113;-69
2022/03/13 22:44:44;;;;;;;150.05;54.25;;;;;;;;;;10315178;28;20215;-67
2022/03/13 22:49:48;;;;;;;160.70;54.38;;;;;;;;;;10310173;28;20040;-68
2022/03/13 22:54:54;;;;;;;77.20;38.28;;;;;;;;;;10326025;28;20051;-69
2022/03/13 22:59:59;;;;;;;;;;;;;;;;;;10328298;28;20390;-67
2022/03/13 23:05:03;;;;;;;67.60;33.55;;;;;;;;;;10313642;28;19918;-66
2022/03/13 23:10:08;;;;;;;64.03;33.83;;;;;;;;;;10313570;28;20050;-69
2022/03/13 23:15:11;;;;;;;62.65;32.08;;;;;;;;;;10314016;28;20082;-68
2022/03/13 23:20:16;;;;;;;62.50;31.60;;;;;;;;;;10313397;28;20061;-69
2022/03/13 23:25:18;;;;;;;78.50;35.17;;;;;;;;;;10312767;28;20051;-67
2022/03/13 23:30:21;;;;;;;76.78;36.13;;;;;;;;;;10313873;28;20047;-67
2022/03/13 23:35:30;;;;;;;70.13;34.80;;;;;;;;;;10312131;28;20050;-69
2022/03/13 23:40:34;;;;;;;90.88;37.95;;;;;;;;;;10319035;28;20057;-68
2022/03/13 23:45:37;;;;;;;99.10;42.58;;;;;;;;;;10312344;28;20042;-68
2022/03/13 23:50:41;;;;;;;90.35;39.72;;;;;;;;;;10312860;28;20039;-67
2022/03/13 23:55:43;;;;;;;84.07;40.20;;;;;;;;;;10310105;28;20126;-69
